Time;durP1;ratioP1;P1;durP2;ratioP2;P2;SDS_P1;SDS_P2;PMS_P1;PMS_P2;Temp;Humidity;BMP_temperature;BMP_pressure;BME280_temperature;BME280_humidity;BME280_pressure;Samples;Min_cycle;Max_cycle;Signal;HPM_P1;HPM_P2
2021/09/30 00:02:01;;;;;;;7.07;1.27;;;10.50;99.90;;;;;;5093043;28;20400;-79
2021/09/30 00:04:27;;;;;;;6.00;1.15;;;10.40;99.90;;;;;;5092984;28;20032;-79
2021/09/30 00:06:53;;;;;;;4.72;1.40;;;10.40;99.90;;;;;;5094398;28;20074;-78
2021/09/30 00:09:19;;;;;;;4.82;1.00;;;10.50;99.90;;;;;;5094021;28;20032;-78
2021/09/30 00:11:48;;;;;;;5.15;0.93;;;10.40;99.90;;;;;;5092913;28;20101;-78
2021/09/30 00:16:58;;;;;;;2.95;1.00;;;10.40;99.90;;;;;;5092903;28;20489;-78
2021/09/30 00:39:36;;;;;;;4.20;0.90;;;10.20;99.90;;;;;;5037139;28;20045;-78
2021/09/30 00:49:45;;;;;;;7.60;3.30;;;9.70;99.90;;;;;;5092076;28;20031;-78
2021/09/30 00:53:02;;;;;;;10.15;3.40;;;9.60;99.90;;;;;;5092306;28;20115;-78
2021/09/30 01:52:19;;;;;;;5.70;1.70;;;8.80;99.90;;;;;;5091425;28;20089;-79
2021/09/30 02:58:32;;;;;;;3.92;1.70;;;8.30;99.90;;;;;;5094296;28;20476;-79
2021/09/30 03:01:19;;;;;;;4.78;1.60;;;8.30;99.90;;;;;;5078155;28;20077;-78
2021/09/30 03:03:47;;;;;;;6.90;1.58;;;8.20;99.90;;;;;;5094699;28;20058;-79
2021/09/30 03:06:14;;;;;;;5.78;1.50;;;8.20;99.90;;;;;;5094428;28;20092;-79
2021/09/30 03:08:46;;;;;;;5.78;2.00;;;8.20;99.90;;;;;;5094346;28;20035;-78
2021/09/30 03:11:14;;;;;;;4.45;1.58;;;8.20;99.90;;;;;;5094187;28;20154;-79
2021/09/30 03:13:43;;;;;;;4.78;1.63;;;8.20;99.90;;;;;;5095150;28;20594;-78
2021/09/30 03:16:39;;;;;;;2.95;1.33;;;8.20;99.90;;;;;;5094016;28;20043;-79
2021/09/30 03:19:03;;;;;;;5.38;1.48;;;8.20;99.90;;;;;;5092906;28;20516;-77
2021/09/30 03:24:17;;;;;;;3.90;1.58;;;8.10;99.90;;;;;;5094961;28;20032;-79
2021/09/30 03:26:45;;;;;;;7.10;1.80;;;8.10;99.90;;;;;;5095298;28;20027;-78
2021/09/30 03:29:13;;;;;;;11.07;1.83;;;8.10;99.90;;;;;;5077279;28;20032;-78
2021/09/30 03:31:41;;;;;;;35.40;12.13;;;8.10;99.90;;;;;;5093501;28;20385;-79
2021/09/30 03:34:07;;;;;;;4.97;1.90;;;8.00;99.90;;;;;;5093681;28;20458;-78
2021/09/30 03:36:35;;;;;;;5.63;1.92;;;8.10;99.90;;;;;;5093538;28;20529;-77
2021/09/30 03:39:01;;;;;;;2.90;1.73;;;8.00;99.90;;;;;;5094864;28;20153;-78
2021/09/30 03:41:26;;;;;;;4.18;1.40;;;8.00;99.90;;;;;;5094872;28;20619;-78
2021/09/30 03:43:52;;;;;;;3.47;1.50;;;8.00;99.90;;;;;;5094221;28;20048;-78
2021/09/30 03:46:18;;;;;;;3.47;1.88;;;8.00;99.90;;;;;;5082677;28;20041;-78
2021/09/30 03:48:52;;;;;;;4.80;1.83;;;7.90;99.90;;;;;;5073065;28;20032;-78
2021/09/30 03:52:09;;;;;;;4.75;1.70;;;8.00;99.90;;;;;;5074284;28;20032;-77
2021/09/30 04:01:33;;;;;;;4.05;2.10;;;7.90;99.90;;;;;;5078183;28;20035;-77
2021/09/30 04:03:59;;;;;;;3.00;1.65;;;7.90;99.90;;;;;;5075700;28;20134;-78
2021/09/30 04:06:25;;;;;;;6.53;1.98;;;7.80;99.90;;;;;;5072822;28;20120;-78
2021/09/30 04:08:51;;;;;;;3.13;1.77;;;7.90;99.90;;;;;;5074279;28;20154;-80
2021/09/30 04:11:17;;;;;;;4.93;2.03;;;7.90;99.90;;;;;;5037172;28;20124;-79
2021/09/30 04:13:43;;;;;;;8.57;2.05;;;7.90;99.90;;;;;;5073577;28;20111;-79
2021/09/30 04:16:09;;;;;;;6.97;2.17;;;7.90;99.90;;;;;;5073509;28;20053;-79
2021/09/30 04:18:38;;;;;;;5.35;3.40;;;7.90;99.90;;;;;;5074084;28;20024;-78
2021/09/30 04:21:03;;;;;;;7.05;2.72;;;7.80;99.90;;;;;;5073610;28;20475;-77
2021/09/30 04:23:29;;;;;;;7.80;2.95;;;7.80;99.90;;;;;;5073854;28;20121;-77
2021/09/30 04:25:55;;;;;;;5.57;2.83;;;7.80;99.90;;;;;;5093782;28;20036;-78
2021/09/30 04:28:21;;;;;;;11.02;3.10;;;7.80;99.90;;;;;;5092703;28;20405;-79
2021/09/30 04:30:46;;;;;;;19.45;3.10;;;7.80;99.90;;;;;;5092469;28;20032;-78
2021/09/30 04:33:12;;;;;;;4.20;2.60;;;7.80;99.90;;;;;;5075741;28;20028;-78
2021/09/30 04:35:38;;;;;;;9.95;3.35;;;7.70;99.90;;;;;;5093426;28;20039;-73
2021/09/30 04:38:09;;;;;;;5.38;2.70;;;7.70;99.90;;;;;;5091793;28;20036;-70
2021/09/30 04:40:35;;;;;;;;;;;7.60;99.90;;;;;;5091883;28;20081;-68
2021/09/30 04:43:01;;;;;;;6.93;2.70;;;7.60;99.90;;;;;;5091372;28;20300;-67
2021/09/30 04:45:28;;;;;;;9.52;2.80;;;7.50;99.90;;;;;;5091110;28;20042;-68
2021/09/30 04:47:53;;;;;;;8.65;3.10;;;7.60;99.90;;;;;;5091367;28;20039;-69
2021/09/30 04:50:19;;;;;;;7.25;3.40;;;7.60;99.90;;;;;;5093226;28;20032;-69
2021/09/30 04:52:45;;;;;;;14.45;3.63;;;7.60;99.90;;;;;;5091945;28;20039;-69
2021/09/30 04:55:11;;;;;;;9.65;3.55;;;7.70;99.90;;;;;;5079026;28;20037;-70
2021/09/30 04:57:36;;;;;;;10.57;2.65;;;7.80;99.90;;;;;;5072636;28;20112;-70
2021/09/30 05:00:04;;;;;;;4.68;2.40;;;7.80;99.90;;;;;;5072809;28;20020;-68
2021/09/30 05:02:33;;;;;;;5.78;2.70;;;7.80;99.90;;;;;;5072704;28;20032;-67
2021/09/30 05:04:58;;;;;;;4.82;2.00;;;7.90;99.90;;;;;;5069998;28;20029;-69
2021/09/30 05:07:24;;;;;;;5.03;2.00;;;7.80;99.90;;;;;;5071673;28;20044;-69
2021/09/30 05:09:53;;;;;;;4.97;1.80;;;7.80;99.90;;;;;;5072411;28;20433;-71
2021/09/30 05:12:21;;;;;;;5.75;2.00;;;7.60;99.90;;;;;;5072674;28;20056;-72
2021/09/30 05:14:48;;;;;;;7.05;2.10;;;7.60;99.90;;;;;;5071306;28;20020;-72
2021/09/30 05:17:13;;;;;;;9.48;2.53;;;7.60;99.90;;;;;;5044770;28;20045;-72
2021/09/30 05:19:39;;;;;;;6.50;2.30;;;7.50;99.90;;;;;;5081659;28;20036;-72
2021/09/30 05:22:05;;;;;;;7.18;2.97;;;7.50;99.90;;;;;;5071272;28;20115;-73
2021/09/30 05:24:31;;;;;;;8.15;2.55;;;7.50;99.90;;;;;;5072460;28;20389;-72
2021/09/30 05:26:56;;;;;;;6.28;2.45;;;7.50;99.90;;;;;;5071070;28;20284;-72
2021/09/30 05:29:22;;;;;;;6.93;2.45;;;7.50;99.90;;;;;;5072571;28;20496;-72
2021/09/30 05:31:48;;;;;;;9.63;3.33;;;7.50;99.90;;;;;;5072382;28;20036;-72
2021/09/30 05:34:14;;;;;;;10.13;2.33;;;7.60;99.90;;;;;;5070831;28;20115;-72
2021/09/30 05:36:40;;;;;;;5.28;2.50;;;7.50;99.90;;;;;;5070781;28;20055;-72
2021/09/30 05:39:05;;;;;;;6.95;3.25;;;7.50;99.90;;;;;;5072064;28;20475;-72
2021/09/30 05:41:32;;;;;;;8.98;2.67;;;7.50;99.90;;;;;;5054030;28;20024;-73
2021/09/30 05:44:06;;;;;;;6.07;2.72;;;7.50;99.90;;;;;;5072086;28;20037;-71
2021/09/30 05:46:36;;;;;;;7.45;2.78;;;7.50;99.90;;;;;;5070875;28;20040;-72
2021/09/30 05:49:05;;;;;;;9.85;3.70;;;7.50;99.90;;;;;;5072055;28;20565;-71
2021/09/30 05:51:31;;;;;;;13.32;3.63;;;7.60;99.90;;;;;;5072145;28;20036;-71
2021/09/30 05:53:57;;;;;;;10.45;3.42;;;7.70;99.90;;;;;;5072342;28;20070;-71
2021/09/30 05:56:23;;;;;;;14.43;4.40;;;7.60;99.90;;;;;;5070581;28;20036;-71
2021/09/30 05:58:48;;;;;;;19.15;3.90;;;7.60;99.90;;;;;;5074402;28;20029;-71
2021/09/30 06:01:56;;;;;;;8.55;3.92;;;7.60;99.90;;;;;;5071778;28;20035;-72
2021/09/30 06:14:43;;;;;;;9.05;2.30;;;7.70;99.90;;;;;;5090166;28;20055;-72
2021/09/30 06:17:08;;;;;;;4.90;2.45;;;7.80;99.90;;;;;;5092122;28;20118;-72
2021/09/30 06:19:34;;;;;;;6.45;2.65;;;7.80;99.90;;;;;;5090646;28;20181;-72
2021/09/30 06:22:04;;;;;;;7.30;2.88;;;7.90;99.90;;;;;;5095627;28;20397;-72
2021/09/30 06:24:30;;;;;;;10.68;3.35;;;7.90;99.90;;;;;;5095881;28;20499;-72
2021/09/30 06:26:57;;;;;;;10.13;3.55;;;8.00;99.90;;;;;;5095208;28;20034;-72
2021/09/30 06:29:22;;;;;;;11.98;3.40;;;8.00;99.90;;;;;;5094653;28;20032;-71
2021/09/30 06:31:48;;;;;;;6.65;3.35;;;8.00;99.90;;;;;;5095636;28;20032;-72
2021/09/30 06:34:15;;;;;;;10.98;3.40;;;8.00;99.90;;;;;;5094921;28;20024;-72
2021/09/30 06:36:41;;;;;;;8.52;2.92;;;8.10;99.90;;;;;;5095585;28;20377;-72
2021/09/30 06:39:07;;;;;;;4.57;2.88;;;8.10;99.90;;;;;;5095505;28;20035;-72
2021/09/30 06:41:33;;;;;;;10.32;3.35;;;8.20;99.90;;;;;;5094302;28;20097;-72
2021/09/30 06:43:58;;;;;;;7.85;2.78;;;8.30;99.90;;;;;;5094659;28;20047;-72
2021/09/30 06:46:25;;;;;;;8.30;2.72;;;8.30;99.90;;;;;;5095625;28;20052;-72
2021/09/30 06:48:52;;;;;;;7.68;2.40;;;8.40;99.90;;;;;;5094248;28;20039;-72
2021/09/30 06:51:21;;;;;;;8.02;2.47;;;8.50;99.90;;;;;;5095407;28;20085;-72
2021/09/30 06:53:47;;;;;;;7.32;2.60;;;8.60;99.90;;;;;;5095636;28;20028;-71
2021/09/30 06:56:18;;;;;;;5.72;2.03;;;8.70;99.90;;;;;;5095288;28;20430;-71
2021/09/30 06:58:47;;;;;;;5.85;2.25;;;8.90;99.90;;;;;;5095734;28;20090;-71
2021/09/30 07:01:16;;;;;;;6.97;2.42;;;8.90;99.90;;;;;;5094294;28;20051;-70
2021/09/30 07:03:43;;;;;;;6.05;3.00;;;9.00;99.90;;;;;;5094100;28;20486;-70
2021/09/30 07:06:09;;;;;;;13.38;2.72;;;9.00;99.90;;;;;;5095376;28;20432;-70
2021/09/30 07:08:34;;;;;;;5.32;2.45;;;9.00;99.90;;;;;;5094983;28;20020;-70
2021/09/30 07:11:00;;;;;;;5.30;2.70;;;9.00;99.90;;;;;;5094226;28;20032;-70
2021/09/30 07:13:26;;;;;;;5.20;1.92;;;9.10;99.90;;;;;;5095375;28;20027;-70
2021/09/30 07:15:53;;;;;;;9.38;2.40;;;9.30;99.90;;;;;;5095084;28;20084;-71
2021/09/30 07:18:20;;;;;;;8.75;2.85;;;9.20;99.90;;;;;;5095114;28;20373;-71
2021/09/30 07:20:53;;;;;;;14.60;3.08;;;9.30;99.90;;;;;;5095087;28;20493;-71
2021/09/30 07:23:20;;;;;;;7.47;2.47;;;9.40;99.90;;;;;;5095316;28;20032;-71
2021/09/30 07:25:46;;;;;;;6.15;2.75;;;9.30;99.90;;;;;;5093490;28;20385;-71
2021/09/30 07:28:12;;;;;;;7.28;2.72;;;9.40;99.90;;;;;;5095275;28;20032;-71
2021/09/30 07:30:38;;;;;;;5.18;2.97;;;9.40;99.90;;;;;;5093390;28;20040;-71
2021/09/30 07:33:05;;;;;;;6.68;2.80;;;9.50;99.90;;;;;;5093578;28;20426;-71
2021/09/30 07:35:32;;;;;;;7.75;2.60;;;9.50;99.90;;;;;;5093496;28;20461;-71
2021/09/30 07:37:57;;;;;;;5.85;2.05;;;9.50;99.90;;;;;;5076846;28;20078;-71
2021/09/30 07:40:24;;;;;;;6.05;2.15;;;9.60;99.90;;;;;;5094780;28;20422;-71
2021/09/30 07:42:53;;;;;;;8.30;2.67;;;9.80;99.90;;;;;;5094410;28;20024;-71
2021/09/30 07:45:20;;;;;;;10.93;2.70;;;9.80;99.90;;;;;;5093469;28;20028;-69
2021/09/30 07:47:48;;;;;;;7.72;2.75;;;9.80;99.90;;;;;;5093390;28;20039;-72
2021/09/30 07:50:14;;;;;;;6.60;2.75;;;9.90;99.90;;;;;;5092930;28;20094;-72
2021/09/30 07:52:40;;;;;;;8.70;2.72;;;10.00;99.90;;;;;;5094506;28;20073;-72
2021/09/30 07:55:07;;;;;;;6.97;2.63;;;10.10;99.90;;;;;;5094294;28;20455;-71
2021/09/30 07:57:33;;;;;;;9.73;2.50;;;10.10;99.90;;;;;;5092705;28;20021;-71
2021/09/30 07:59:59;;;;;;;7.72;2.65;;;10.10;99.90;;;;;;5094430;28;20032;-70
2021/09/30 08:02:25;;;;;;;6.53;2.72;;;10.30;99.90;;;;;;5093017;28;20123;-71
2021/09/30 08:04:50;;;;;;;9.98;3.22;;;10.40;99.90;;;;;;5083229;28;20024;-70
2021/09/30 08:07:16;;;;;;;9.43;2.80;;;10.50;99.90;;;;;;5073858;28;20115;-70
2021/09/30 08:09:42;;;;;;;6.80;2.42;;;10.40;99.90;;;;;;5072560;28;20070;-70
2021/09/30 08:12:08;;;;;;;6.97;2.47;;;10.50;99.90;;;;;;5073825;28;20036;-71
2021/09/30 08:14:35;;;;;;;8.57;2.33;;;10.50;99.90;;;;;;5073836;28;20039;-71
2021/09/30 08:17:01;;;;;;;6.03;2.67;;;10.60;99.90;;;;;;5073716;28;20063;-71
2021/09/30 08:19:27;;;;;;;9.43;2.53;;;10.70;99.90;;;;;;5073479;28;20029;-71
2021/09/30 08:21:56;;;;;;;8.77;2.60;;;10.90;99.90;;;;;;5072676;28;20563;-70
2021/09/30 08:24:22;;;;;;;8.60;2.33;;;11.00;99.90;;;;;;5073500;28;20037;-71
2021/09/30 08:26:48;;;;;;;6.57;2.13;;;11.10;99.90;;;;;;5073764;28;20109;-71
2021/09/30 08:29:17;;;;;;;4.60;2.13;;;11.30;99.90;;;;;;5073690;28;20032;-71
2021/09/30 08:31:45;;;;;;;5.28;2.08;;;11.40;99.90;;;;;;5073202;28;20446;-70
2021/09/30 08:34:11;;;;;;;5.63;1.75;;;11.50;99.90;;;;;;5073250;28;20086;-71
2021/09/30 08:36:37;;;;;;;6.82;2.42;;;11.50;99.90;;;;;;5073296;28;20028;-70
2021/09/30 08:39:08;;;;;;;7.97;1.73;;;11.70;99.90;;;;;;5072430;28;20028;-70
2021/09/30 08:41:36;;;;;;;5.20;1.45;;;11.90;99.90;;;;;;5073085;28;20488;-70
2021/09/30 08:44:04;;;;;;;3.55;1.20;;;12.10;99.90;;;;;;5071566;28;20032;-70
2021/09/30 08:46:31;;;;;;;6.10;1.35;;;12.30;99.90;;;;;;5072831;28;20386;-70
2021/09/30 08:48:57;;;;;;;4.85;1.23;;;12.40;99.90;;;;;;5072924;28;20028;-70
2021/09/30 08:51:22;;;;;;;7.55;1.35;;;12.50;99.90;;;;;;5073307;28;20032;-70
2021/09/30 08:53:48;;;;;;;7.22;1.60;;;12.50;99.90;;;;;;5088555;28;20074;-70
2021/09/30 08:56:17;;;;;;;9.18;1.92;;;12.50;99.90;;;;;;5071657;28;20060;-69
2021/09/30 08:58:48;;;;;;;5.22;1.42;;;12.50;99.90;;;;;;5072836;28;20141;-70
2021/09/30 09:01:14;;;;;;;4.70;1.00;;;12.60;99.90;;;;;;5072745;28;20473;-70
2021/09/30 09:03:48;;;;;;;5.65;1.20;;;12.60;99.90;;;;;;5071791;28;20028;-69
2021/09/30 09:06:33;;;;;;;3.45;1.00;;;12.70;99.90;;;;;;5071645;28;20028;-70
2021/09/30 09:09:23;;;;;;;4.60;0.90;;;12.90;99.90;;;;;;5072934;28;20394;-70
2021/09/30 09:11:50;;;;;;;4.53;0.93;;;13.00;99.90;;;;;;5071419;28;20456;-70
2021/09/30 09:14:29;;;;;;;2.25;0.80;;;13.10;99.90;;;;;;5072947;28;20043;-70
2021/09/30 09:17:00;;;;;;;8.57;1.30;;;13.20;99.90;;;;;;5071359;28;20478;-70
2021/09/30 09:19:39;;;;;;;3.35;0.90;;;13.30;99.90;;;;;;5072460;28;20043;-71
2021/09/30 09:22:19;;;;;;;11.48;1.55;;;13.30;99.90;;;;;;5071456;28;20043;-70
2021/09/30 09:25:16;;;;;;;3.42;0.90;;;13.30;99.90;;;;;;5072360;28;20035;-69
2021/09/30 09:27:59;;;;;;;3.35;0.95;;;13.50;99.90;;;;;;5072719;28;20035;-70
2021/09/30 09:30:43;;;;;;;2.35;0.90;;;13.50;99.90;;;;;;5071178;28;20024;-71
2021/09/30 09:33:15;;;;;;;4.22;0.90;;;13.70;99.90;;;;;;5070784;28;20059;-71
2021/09/30 09:35:55;;;;;;;4.55;1.10;;;13.80;99.90;;;;;;5071980;28;20063;-71
2021/09/30 09:38:27;;;;;;;6.65;1.10;;;14.00;99.90;;;;;;5072753;28;20032;-70
2021/09/30 09:41:05;;;;;;;3.22;0.90;;;14.00;99.90;;;;;;5072138;28;20039;-71
2021/09/30 09:43:34;;;;;;;5.43;0.90;;;14.10;99.90;;;;;;5070930;28;20040;-71
2021/09/30 09:46:01;;;;;;;4.18;0.93;;;14.10;99.90;;;;;;5070747;28;20101;-69
2021/09/30 09:48:33;;;;;;;2.65;0.70;;;14.20;99.90;;;;;;5071734;28;20029;-70
2021/09/30 09:51:01;;;;;;;4.32;0.98;;;14.30;99.90;;;;;;5070509;28;20043;-69
2021/09/30 09:53:31;;;;;;;3.45;0.68;;;14.40;99.90;;;;;;5083571;28;20393;-69
2021/09/30 09:56:16;;;;;;;8.20;0.90;;;14.30;99.90;;;;;;5090740;28;20034;-69
2021/09/30 09:58:55;;;;;;;1.88;0.57;;;14.40;99.90;;;;;;5091918;28;20513;-71
2021/09/30 10:01:41;;;;;;;6.93;1.10;;;14.50;99.90;;;;;;5076224;28;20482;-72
2021/09/30 10:04:08;;;;;;;4.78;0.70;;;14.50;99.90;;;;;;5072050;28;20029;-70
2021/09/30 10:06:35;;;;;;;3.42;0.75;;;14.50;99.90;;;;;;5070893;28;20497;-71
2021/09/30 10:09:05;;;;;;;8.73;2.05;;;14.50;99.90;;;;;;5072124;28;20024;-73
2021/09/30 10:11:31;;;;;;;3.00;0.70;;;14.60;99.90;;;;;;5070698;28;20040;-71
2021/09/30 10:14:00;;;;;;;4.93;0.70;;;14.70;99.90;;;;;;5071747;28;20024;-71
2021/09/30 10:16:29;;;;;;;6.35;0.95;;;14.70;99.90;;;;;;5070865;28;20033;-71
2021/09/30 10:19:03;;;;;;;4.45;0.82;;;14.90;99.90;;;;;;5070683;28;20032;-72
2021/09/30 10:21:33;;;;;;;4.47;1.10;;;14.80;99.90;;;;;;5070930;28;20075;-71
2021/09/30 10:24:05;;;;;;;6.63;0.90;;;14.90;99.90;;;;;;5070254;28;20052;-71
2021/09/30 10:26:53;;;;;;;6.72;0.73;;;14.70;99.90;;;;;;5071590;28;20025;-72
2021/09/30 10:29:44;;;;;;;7.07;0.65;;;14.60;99.90;;;;;;5070684;28;20132;-72
2021/09/30 10:32:17;;;;;;;2.83;0.70;;;14.90;99.90;;;;;;5070060;28;20082;-73
2021/09/30 10:34:47;;;;;;;3.63;0.80;;;15.00;99.90;;;;;;5069500;28;20025;-71
2021/09/30 10:37:31;;;;;;;4.65;0.70;;;15.20;99.90;;;;;;5070021;28;20029;-73
2021/09/30 10:41:00;;;;;;;5.93;1.27;;;15.50;99.90;;;;;;5069575;28;20565;-73
2021/09/30 10:43:30;;;;;;;2.97;0.52;;;15.50;99.90;;;;;;5018624;28;20045;-73
2021/09/30 10:45:58;;;;;;;6.43;0.90;;;15.60;99.90;;;;;;5070287;28;20548;-73
2021/09/30 10:48:23;;;;;;;2.03;0.85;;;15.50;99.90;;;;;;5070679;28;20033;-73
2021/09/30 10:51:14;;;;;;;4.28;0.55;;;15.40;99.90;;;;;;5072679;28;20428;-73
2021/09/30 10:53:45;;;;;;;3.28;0.95;;;15.60;99.90;;;;;;5072040;28;20040;-71
2021/09/30 10:56:30;;;;;;;6.13;0.75;;;15.50;99.90;;;;;;5071645;28;20043;-71
2021/09/30 10:59:13;;;;;;;2.92;0.60;;;15.60;99.90;;;;;;5070479;28;20046;-73
2021/09/30 11:01:45;;;;;;;8.88;1.00;;;15.20;99.20;;;;;;5070785;28;20060;-73
2021/09/30 11:04:11;;;;;;;5.95;2.20;;;15.20;99.70;;;;;;5071695;28;20427;-73
2021/09/30 11:06:37;;;;;;;3.90;0.55;;;15.30;99.90;;;;;;5073025;28;20037;-73
2021/09/30 11:09:21;;;;;;;3.92;0.70;;;15.40;98.70;;;;;;5076110;28;20043;-73
2021/09/30 11:11:51;;;;;;;7.60;0.75;;;15.60;99.90;;;;;;5075728;28;20043;-73
2021/09/30 11:14:23;;;;;;;5.20;1.08;;;15.40;99.90;;;;;;5075549;28;20082;-70
2021/09/30 11:16:55;;;;;;;4.70;0.70;;;15.60;99.90;;;;;;5073550;28;20036;-72
2021/09/30 11:19:41;;;;;;;3.50;0.93;;;15.80;99.80;;;;;;5073775;28;20035;-72
2021/09/30 11:22:11;;;;;;;3.00;0.80;;;16.30;99.90;;;;;;5074908;28;20033;-72
2021/09/30 11:24:57;;;;;;;5.53;1.02;;;16.50;98.80;;;;;;5090338;28;20116;-72
2021/09/30 11:27:32;;;;;;;3.15;0.65;;;16.70;97.50;;;;;;5074644;28;20032;-70
2021/09/30 11:30:25;;;;;;;3.85;0.70;;;16.80;97.90;;;;;;5073315;28;20028;-71
2021/09/30 11:32:57;;;;;;;4.90;1.05;;;17.10;97.50;;;;;;5053744;28;20408;-72
2021/09/30 11:35:22;;;;;;;6.10;1.08;;;17.60;96.10;;;;;;5074186;28;20090;-71
2021/09/30 11:37:48;;;;;;;1.98;0.70;;;17.50;95.70;;;;;;5074242;28;20037;-71
2021/09/30 11:40:18;;;;;;;4.93;0.60;;;17.00;96.50;;;;;;5056336;28;20028;-71
2021/09/30 11:42:52;;;;;;;2.30;0.57;;;16.80;94.80;;;;;;5073210;28;20094;-72
2021/09/30 11:45:28;;;;;;;2.50;0.60;;;17.20;95.00;;;;;;5074296;28;20043;-72
2021/09/30 11:48:05;;;;;;;5.25;0.75;;;18.90;92.30;;;;;;5056671;28;20059;-72
2021/09/30 11:50:31;;;;;;;2.10;0.75;;;19.90;91.30;;;;;;5072884;28;20367;-72
2021/09/30 11:53:19;;;;;;;3.42;0.82;;;20.10;90.00;;;;;;5088902;28;20116;-71
2021/09/30 11:55:45;;;;;;;4.53;0.68;;;19.00;91.50;;;;;;5073801;28;20455;-72
2021/09/30 11:58:13;;;;;;;2.45;0.77;;;18.40;92.60;;;;;;5076674;28;20058;-71
2021/09/30 12:00:44;;;;;;;5.20;0.43;;;19.10;92.50;;;;;;5073973;28;20107;-73
2021/09/30 12:03:09;;;;;;;5.35;0.82;;;19.80;89.90;;;;;;5072744;28;20032;-72
2021/09/30 12:05:39;;;;;;;5.70;0.85;;;19.80;87.40;;;;;;5073821;28;20048;-73
2021/09/30 12:08:09;;;;;;;5.00;0.75;;;19.20;90.00;;;;;;5074216;28;20036;-73
2021/09/30 12:10:37;;;;;;;2.53;0.73;;;17.90;91.30;;;;;;5073219;28;20067;-73
2021/09/30 12:20:54;;;;;;;6.65;0.98;;;20.30;89.70;;;;;;5082699;28;20058;-73
2021/09/30 12:23:20;;;;;;;4.70;0.70;;;21.40;81.90;;;;;;5093740;28;20039;-71
2021/09/30 12:25:46;;;;;;;5.28;0.90;;;21.60;82.50;;;;;;5092305;28;20427;-73
2021/09/30 12:28:12;;;;;;;4.45;0.80;;;22.30;81.20;;;;;;5093673;28;20036;-72
2021/09/30 12:30:40;;;;;;;3.10;0.80;;;20.50;81.90;;;;;;5092688;28;20135;-72
2021/09/30 12:33:07;;;;;;;4.38;0.80;;;20.30;83.40;;;;;;5092375;28;20534;-72
2021/09/30 12:35:39;;;;;;;1.77;0.60;;;20.30;85.50;;;;;;5093488;28;20024;-73
2021/09/30 12:38:23;;;;;;;3.75;0.57;;;19.40;84.00;;;;;;5092510;28;20035;-72
2021/09/30 12:40:54;;;;;;;3.67;0.73;;;18.60;88.80;;;;;;5093587;28;20028;-72
2021/09/30 12:43:32;;;;;;;4.70;0.77;;;17.60;88.80;;;;;;5092091;28;20035;-73
2021/09/30 12:46:08;;;;;;;3.42;0.73;;;17.10;90.20;;;;;;5093444;28;20450;-72
2021/09/30 12:48:40;;;;;;;3.15;0.73;;;17.80;90.40;;;;;;5093055;28;20090;-72
2021/09/30 12:51:14;;;;;;;1.38;0.60;;;19.00;88.70;;;;;;5093142;28;20446;-72
2021/09/30 12:53:51;;;;;;;0.50;0.30;;;18.90;85.20;;;;;;5093183;28;20032;-72
2021/09/30 12:56:27;;;;;;;2.92;0.63;;;18.80;88.60;;;;;;5058435;28;20051;-72
2021/09/30 12:58:53;;;;;;;3.38;0.70;;;19.30;88.10;;;;;;5092879;28;20115;-72
2021/09/30 13:01:30;;;;;;;4.45;0.75;;;19.60;86.50;;;;;;5091645;28;20064;-72
2021/09/30 13:04:23;;;;;;;4.90;0.80;;;19.40;87.70;;;;;;5092505;28;20020;-72
2021/09/30 13:06:59;;;;;;;2.30;0.60;;;18.80;87.10;;;;;;5093216;28;20028;-73
2021/09/30 13:09:38;;;;;;;1.63;0.68;;;18.40;90.30;;;;;;5092767;28;20030;-73
2021/09/30 13:12:14;;;;;;;2.72;0.68;;;18.40;88.90;;;;;;5074350;28;20035;-73
2021/09/30 13:14:54;;;;;;;4.28;0.70;;;18.70;88.10;;;;;;5093175;28;20376;-73
2021/09/30 13:17:23;;;;;;;4.40;1.20;;;18.60;88.10;;;;;;5091766;28;20032;-72
2021/09/30 13:20:02;;;;;;;3.20;0.60;;;18.30;89.20;;;;;;5074328;28;20138;-73
2021/09/30 13:22:37;;;;;;;3.65;0.60;;;19.60;86.50;;;;;;5091640;28;20077;-72
2021/09/30 13:25:08;;;;;;;7.07;0.70;;;19.20;84.80;;;;;;5092344;28;20064;-73
2021/09/30 13:27:37;;;;;;;2.50;0.70;;;19.50;83.90;;;;;;5091308;28;20032;-73
2021/09/30 13:30:11;;;;;;;4.15;0.90;;;19.20;82.70;;;;;;5090840;28;20032;-73
2021/09/30 13:32:38;;;;;;;2.78;0.60;;;19.60;82.90;;;;;;5074813;28;20082;-72
2021/09/30 13:35:05;;;;;;;1.63;0.55;;;18.50;84.90;;;;;;5092515;28;20039;-73
2021/09/30 13:37:32;;;;;;;4.07;0.77;;;18.60;85.90;;;;;;5091273;28;20024;-73
2021/09/30 13:40:00;;;;;;;5.03;0.63;;;18.90;85.60;;;;;;5108247;28;20028;-73
2021/09/30 13:42:30;;;;;;;4.03;0.75;;;19.10;84.20;;;;;;5092733;28;20047;-72
2021/09/30 13:44:57;;;;;;;0.95;0.50;;;19.90;83.10;;;;;;5092172;28;20030;-72
2021/09/30 13:47:28;;;;;;;2.85;1.13;;;20.50;80.60;;;;;;5090588;28;20097;-72
2021/09/30 13:49:56;;;;;;;2.63;0.60;;;20.00;81.80;;;;;;5089609;28;20032;-73
2021/09/30 13:52:23;;;;;;;1.88;0.77;;;19.10;82.70;;;;;;5074589;28;20036;-73
2021/09/30 13:54:49;;;;;;;3.85;0.95;;;18.40;84.80;;;;;;5071781;28;20141;-73
2021/09/30 13:57:15;;;;;;;4.60;0.80;;;18.10;85.20;;;;;;5071816;28;20116;-73
2021/09/30 13:59:41;;;;;;;5.22;1.50;;;18.80;83.90;;;;;;5070701;28;20033;-68
2021/09/30 14:02:07;;;;;;;2.03;0.65;;;19.20;86.50;;;;;;5070355;28;20107;-73
2021/09/30 14:04:35;;;;;;;2.72;0.65;;;19.70;82.20;;;;;;5071892;28;20463;-73
2021/09/30 14:07:07;;;;;;;4.05;0.43;;;20.40;81.60;;;;;;5070418;28;20096;-73
2021/09/30 14:09:34;;;;;;;4.93;0.70;;;19.40;83.70;;;;;;5054095;28;20052;-73
2021/09/30 14:12:01;;;;;;;4.15;0.70;;;19.70;83.90;;;;;;5070329;28;20036;-74
2021/09/30 14:14:27;;;;;;;6.78;1.08;;;20.10;81.10;;;;;;5070593;28;20471;-74
2021/09/30 14:16:53;;;;;;;2.90;0.60;;;19.70;81.90;;;;;;5071613;28;20138;-74
2021/09/30 14:19:24;;;;;;;2.60;1.00;;;19.00;85.80;;;;;;5070461;28;20039;-73
2021/09/30 14:21:51;;;;;;;;;;;18.90;85.00;;;;;;5071833;28;20103;-73
2021/09/30 14:24:17;;;;;;;1.98;0.47;;;19.00;83.10;;;;;;5070506;28;19912;-73
2021/09/30 14:26:43;;;;;;;3.65;0.98;;;19.00;85.00;;;;;;5070181;28;20385;-74
2021/09/30 14:29:08;;;;;;;5.70;0.93;;;18.90;83.40;;;;;;5070380;28;20040;-73
2021/09/30 14:31:34;;;;;;;2.17;0.60;;;18.60;85.40;;;;;;5071570;28;20529;-73
2021/09/30 14:34:00;;;;;;;4.15;1.65;;;18.40;84.20;;;;;;5071711;28;20044;-74
2021/09/30 14:36:26;;;;;;;2.55;0.45;;;18.70;84.60;;;;;;5070452;28;20397;-73
2021/09/30 14:38:52;;;;;;;4.82;0.60;;;18.70;83.50;;;;;;5086922;28;20032;-74
2021/09/30 14:41:17;;;;;;;1.52;0.50;;;18.50;82.40;;;;;;5087380;28;20033;-74
2021/09/30 14:43:43;;;;;;;5.40;1.00;;;18.50;82.70;;;;;;5074446;28;20021;-74
2021/09/30 14:46:10;;;;;;;7.75;0.63;;;18.50;84.00;;;;;;5074717;28;20451;-74
2021/09/30 14:48:40;;;;;;;4.30;0.50;;;18.10;83.50;;;;;;5075088;28;20032;-74
2021/09/30 14:51:07;;;;;;;4.30;0.60;;;18.20;84.40;;;;;;5073771;28;20480;-74
2021/09/30 14:53:37;;;;;;;2.42;0.45;;;18.10;84.60;;;;;;5057480;28;20036;-74
2021/09/30 14:56:05;;;;;;;2.40;0.98;;;18.20;86.10;;;;;;5073456;28;20040;-73
2021/09/30 14:58:31;;;;;;;2.70;0.60;;;18.30;84.60;;;;;;5073938;28;20465;-73
2021/09/30 15:00:57;;;;;;;6.47;0.77;;;18.30;83.80;;;;;;5073745;28;20116;-73
2021/09/30 15:03:23;;;;;;;4.10;0.60;;;18.10;85.70;;;;;;5073677;28;20502;-73
2021/09/30 15:05:49;;;;;;;3.67;0.55;;;17.90;86.40;;;;;;5075191;28;20040;-70
2021/09/30 15:08:18;;;;;;;3.30;0.55;;;17.70;86.70;;;;;;5074919;28;20037;-70
2021/09/30 15:10:44;;;;;;;5.63;1.05;;;17.60;87.80;;;;;;5073763;28;20032;-69
2021/09/30 15:13:10;;;;;;;1.63;0.70;;;17.90;86.80;;;;;;5075039;28;20461;-70
2021/09/30 15:15:36;;;;;;;1.77;0.40;;;18.00;87.20;;;;;;5074458;28;20044;-70
2021/09/30 15:18:06;;;;;;;3.65;0.60;;;17.90;87.80;;;;;;5073552;28;20029;-70
2021/09/30 15:23:14;;;;;;;1.75;0.60;;;18.60;85.50;;;;;;5074692;28;20036;-70
2021/09/30 15:25:42;;;;;;;2.97;1.08;;;18.50;85.80;;;;;;5073491;28;20028;-69
2021/09/30 15:28:12;;;;;;;4.45;1.00;;;18.00;87.30;;;;;;5073245;28;20028;-69
2021/09/30 15:30:40;;;;;;;5.30;1.15;;;17.20;87.80;;;;;;5073160;28;20033;-68
2021/09/30 15:33:09;;;;;;;3.03;0.90;;;16.90;90.10;;;;;;5073331;28;20025;-68
2021/09/30 15:35:34;;;;;;;3.95;0.63;;;17.10;90.40;;;;;;5073602;28;20116;-69
2021/09/30 15:38:01;;;;;;;4.22;0.70;;;17.20;91.40;;;;;;5074873;28;20095;-68
2021/09/30 15:40:27;;;;;;;4.75;0.77;;;17.40;89.50;;;;;;5073151;28;20028;-68
2021/09/30 15:42:52;;;;;;;2.50;0.57;;;17.50;90.10;;;;;;5073484;28;20090;-69
2021/09/30 15:45:21;;;;;;;3.78;0.90;;;17.30;89.90;;;;;;5073972;28;20565;-69
2021/09/30 15:47:48;;;;;;;14.15;1.52;;;17.10;90.20;;;;;;5074530;28;20106;-68
2021/09/30 15:50:14;;;;;;;3.42;0.63;;;17.20;90.80;;;;;;5074207;28;20028;-68
2021/09/30 15:52:40;;;;;;;4.70;0.63;;;17.00;90.00;;;;;;5074096;28;20028;-70
2021/09/30 15:55:06;;;;;;;1.60;0.40;;;17.00;90.30;;;;;;5073934;28;20040;-70
2021/09/30 15:57:35;;;;;;;2.45;0.82;;;17.00;90.30;;;;;;5088563;28;20028;-70
2021/09/30 16:00:06;;;;;;;2.90;0.70;;;16.80;90.50;;;;;;5094518;28;20093;-72
2021/09/30 16:02:32;;;;;;;2.67;0.73;;;16.80;90.60;;;;;;5093312;28;20035;-72
2021/09/30 16:04:59;;;;;;;5.20;0.70;;;16.60;90.50;;;;;;5094165;28;20032;-70
2021/09/30 16:07:25;;;;;;;3.70;1.00;;;16.50;90.90;;;;;;5090718;28;20028;-70